Shabab Oman 2 — A4LB — position and weather

sailwx.info

Track history (hours):
 
Tides and Currents Weather Stations Pressure Air Temp Water Temp Dewpoint Dewpoint Depression Visibility Wind Speed Wind Dir Waves Ship Positions

Shabab Oman 2

Last reported at 2017-Sep-15 09:54 UTC. Time now 2017-Sep-22 15:37 UTC.
Position N 36°05' W 005°23'.

Length 86 m; draft 5.4 m.

Type: Sailing vessel. MMSI: 461000441.

Date/timePositionNaut miles runAvg speedWind from/ knotsBaromVisibWave heightAir tempDewpointWater temp
2017-Sep-15 09:54N 36°05' W 005°23'512.5
2017-Sep-15 09:30N 35°60' W 005°24'  
2017-Sep-11 07:27N 35°47' W 005°48'156 4.9
2017-Sep-09 23:30N 36°26' W 008°55'510.7
2017-Sep-09 23:00N 36°27' W 009°02'85 7.5
2017-Sep-09 11:41N 37°43' W 009°50'3 5.5
2017-Sep-09 11:13N 37°45' W 009°50'1 4.8
2017-Sep-09 10:57N 37°46' W 009°51'12 5.1
2017-Sep-09 08:35N 37°58' W 009°56'0 4.5
2017-Sep-09 08:30N 37°58' W 009°56'2 4.3
2017-Sep-09 08:00N 38°00' W 009°57'2 4.2
2017-Sep-09 07:30N 38°02' W 009°58'2 4.4
2017-Sep-09 07:00N 38°04' W 009°59'2 4.7
2017-Sep-09 06:30N 38°06' W 010°00'4 4.6
2017-Sep-09 05:40N 38°10' W 010°02'1 5.2
2017-Sep-09 05:29N 38°11' W 010°02'3 5.5
2017-Sep-09 05:00N 38°14' W 010°02'3 6.5
2017-Sep-09 04:30N 38°17' W 010°02'3 6.8
2017-Sep-09 04:00N 38°20' W 010°02'3 5.3
2017-Sep-09 03:30N 38°23' W 010°02'2 4.7
2017-Sep-09 03:00N 38°25' W 010°02'3 5.1
2017-Sep-09 02:30N 38°28' W 010°03'4 7.8
2017-Sep-09 02:00N 38°32' W 010°04'4 7.6
2017-Sep-09 01:30N 38°35' W 010°05'3 5.9
2017-Sep-09 01:00N 38°38' W 010°06'3 5.4
2017-Sep-09 00:30N 38°41' W 010°07'3 5.8
2017-Sep-09 00:00N 38°43' W 010°08'3 6.9
2017-Sep-08 23:30N 38°47' W 010°08'3 6.3
2017-Sep-08 23:00N 38°50' W 010°08'3 6.9
2017-Sep-08 22:30N 38°53' W 010°08'4 7.1
2017-Sep-08 22:00N 38°57' W 010°08'4 7.3
2017-Sep-08 21:29N 39°01' W 010°08'4 7.2
2017-Sep-08 21:00N 39°04' W 010°08'4 7.0
2017-Sep-08 20:29N 39°08' W 010°08'3 6.8
2017-Sep-08 20:00N 39°11' W 010°08'4 7.6
2017-Sep-08 19:29N 39°15' W 010°08'4 7.7
2017-Sep-08 18:57N 39°19' W 010°07'  
2017-Sep-05 19:53N 47°25' W 007°02'  
Track history (hours):
 
Tides and Currents Weather Stations Pressure Air Temp Water Temp Dewpoint Dewpoint Depression Visibility Wind Speed Wind Dir Waves Ship Positions

Shabab Oman 2

Last reported at 2017-Sep-15 09:54 UTC. Time now 2017-Sep-22 15:37 UTC.
Position N 36°05' W 005°23'.

Length 86 m; draft 5.4 m.

Type: Sailing vessel. MMSI: 461000441.

Date/timePositionNaut miles runAvg speedWind from/ knotsBaromVisibWave heightAir tempDewpointWater temp
2017-Sep-15 09:54N 36°05' W 005°23'512.5
2017-Sep-15 09:30N 35°60' W 005°24'  
2017-Sep-11 07:27N 35°47' W 005°48'156 4.9
2017-Sep-09 23:30N 36°26' W 008°55'510.7
2017-Sep-09 23:00N 36°27' W 009°02'85 7.5
2017-Sep-09 11:41N 37°43' W 009°50'3 5.5
2017-Sep-09 11:13N 37°45' W 009°50'1 4.8
2017-Sep-09 10:57N 37°46' W 009°51'12 5.1
2017-Sep-09 08:35N 37°58' W 009°56'0 4.5
2017-Sep-09 08:30N 37°58' W 009°56'2 4.3
2017-Sep-09 08:00N 38°00' W 009°57'2 4.2
2017-Sep-09 07:30N 38°02' W 009°58'2 4.4
2017-Sep-09 07:00N 38°04' W 009°59'2 4.7
2017-Sep-09 06:30N 38°06' W 010°00'4 4.6
2017-Sep-09 05:40N 38°10' W 010°02'1 5.2
2017-Sep-09 05:29N 38°11' W 010°02'3 5.5
2017-Sep-09 05:00N 38°14' W 010°02'3 6.5
2017-Sep-09 04:30N 38°17' W 010°02'3 6.8
2017-Sep-09 04:00N 38°20' W 010°02'3 5.3
2017-Sep-09 03:30N 38°23' W 010°02'2 4.7
2017-Sep-09 03:00N 38°25' W 010°02'3 5.1
2017-Sep-09 02:30N 38°28' W 010°03'4 7.8
2017-Sep-09 02:00N 38°32' W 010°04'4 7.6
2017-Sep-09 01:30N 38°35' W 010°05'3 5.9
2017-Sep-09 01:00N 38°38' W 010°06'3 5.4
2017-Sep-09 00:30N 38°41' W 010°07'3 5.8
2017-Sep-09 00:00N 38°43' W 010°08'3 6.9
2017-Sep-08 23:30N 38°47' W 010°08'3 6.3
2017-Sep-08 23:00N 38°50' W 010°08'3 6.9
2017-Sep-08 22:30N 38°53' W 010°08'4 7.1
2017-Sep-08 22:00N 38°57' W 010°08'4 7.3
2017-Sep-08 21:29N 39°01' W 010°08'4 7.2
2017-Sep-08 21:00N 39°04' W 010°08'4 7.0
2017-Sep-08 20:29N 39°08' W 010°08'3 6.8
2017-Sep-08 20:00N 39°11' W 010°08'4 7.6
2017-Sep-08 19:29N 39°15' W 010°08'4 7.7
2017-Sep-08 18:57N 39°19' W 010°07'  
2017-Sep-05 19:53N 47°25' W 007°02'  

Dump ship's entire track history